Alleghany, Virginia
Current Conditions -  °F | °C
As of 12:35 AM on Thursday 23 Oct 2014 (Local Time) from KHSP Reporting Station
Overcast Overcast  
Wind Chill: -1°   Ceiling: 600
Heat Index:   Visibility: 10mi
Dew Point:   Wind: 18mph
Humidity: 92%   Direction: 290°WNW
Pressure: 30.03"   Gusts: 29mph
Location:  37.7731°N, 80.0632°W
Report Text: KHSP 230435Z AUTO 29016G25KT 10SM OVC006 04/03 A3003 RMK AO2 T00400028
Loading
Personal Weather Stations






























Interactive Weather Map
Tropical Storm Tracking
New forecast layout! Learn more

10-Day Weather Forecast

Advertisements
Track Severe Weather on mobile